sensor_id;sensor_type;location;lat;lon;timestamp;temperature;humidity
9157;DHT22;4613;48.392;9.998;2023-03-14T00:02:13;9.90;99.90
9157;DHT22;4613;48.392;9.998;2023-03-14T00:05:04;9.90;99.90
9157;DHT22;4613;48.392;9.998;2023-03-14T00:07:55;9.70;99.90
9157;DHT22;4613;48.392;9.998;2023-03-14T00:10:45;9.70;99.90
9157;DHT22;4613;48.392;9.998;2023-03-14T00:13:34;9.80;99.90
9157;DHT22;4613;48.392;9.998;2023-03-14T00:16:23;9.70;99.90
9157;DHT22;4613;48.392;9.998;2023-03-14T00:19:13;9.60;99.90
9157;DHT22;4613;48.392;9.998;2023-03-14T00:22:03;9.60;99.90
9157;DHT22;4613;48.392;9.998;2023-03-14T00:24:52;9.60;99.90
9157;DHT22;4613;48.392;9.998;2023-03-14T00:27:41;9.70;99.90
9157;DHT22;4613;48.392;9.998;2023-03-14T00:30:30;9.80;99.90
9157;DHT22;4613;48.392;9.998;2023-03-14T00:33:20;9.40;99.90
9157;DHT22;4613;48.392;9.998;2023-03-14T00:36:14;9.80;99.90
9157;DHT22;4613;48.392;9.998;2023-03-14T00:39:03;9.60;99.90
9157;DHT22;4613;48.392;9.998;2023-03-14T00:41:54;9.50;99.90
9157;DHT22;4613;48.392;9.998;2023-03-14T00:44:44;9.50;99.90
9157;DHT22;4613;48.392;9.998;2023-03-14T00:47:34;9.30;99.90
9157;DHT22;4613;48.392;9.998;2023-03-14T00:50:23;9.40;99.90
9157;DHT22;4613;48.392;9.998;2023-03-14T00:53:12;9.30;99.90
9157;DHT22;4613;48.392;9.998;2023-03-14T00:56:07;9.10;99.90
9157;DHT22;4613;48.392;9.998;2023-03-14T00:58:57;9.00;99.90
9157;DHT22;4613;48.392;9.998;2023-03-14T01:01:46;8.70;99.90
9157;DHT22;4613;48.392;9.998;2023-03-14T01:04:36;8.70;99.90
9157;DHT22;4613;48.392;9.998;2023-03-14T01:07:26;8.60;99.90
9157;DHT22;4613;48.392;9.998;2023-03-14T01:10:16;8.60;99.90
9157;DHT22;4613;48.392;9.998;2023-03-14T01:13:05;8.50;99.90
9157;DHT22;4613;48.392;9.998;2023-03-14T01:15:55;8.50;99.90
9157;DHT22;4613;48.392;9.998;2023-03-14T01:18:49;8.50;99.90
9157;DHT22;4613;48.392;9.998;2023-03-14T01:21:39;8.50;99.90
9157;DHT22;4613;48.392;9.998;2023-03-14T01:24:28;8.70;99.90
9157;DHT22;4613;48.392;9.998;2023-03-14T01:27:18;8.80;99.90
9157;DHT22;4613;48.392;9.998;2023-03-14T01:30:09;8.80;99.90
9157;DHT22;4613;48.392;9.998;2023-03-14T01:32:58;8.60;99.90
9157;DHT22;4613;48.392;9.998;2023-03-14T01:35:50;8.60;99.90
9157;DHT22;4613;48.392;9.998;2023-03-14T01:38:39;8.60;99.90
9157;DHT22;4613;48.392;9.998;2023-03-14T01:41:31;8.70;99.90
9157;DHT22;4613;48.392;9.998;2023-03-14T01:44:22;8.80;99.90
9157;DHT22;4613;48.392;9.998;2023-03-14T01:47:12;8.90;99.90
9157;DHT22;4613;48.392;9.998;2023-03-14T01:50:06;9.00;99.90
9157;DHT22;4613;48.392;9.998;2023-03-14T01:52:57;8.80;99.90
9157;DHT22;4613;48.392;9.998;2023-03-14T01:55:50;8.90;99.90
9157;DHT22;4613;48.392;9.998;2023-03-14T01:58:42;9.10;99.90
9157;DHT22;4613;48.392;9.998;2023-03-14T02:01:34;8.80;99.90
9157;DHT22;4613;48.392;9.998;2023-03-14T02:04:28;9.00;99.90
9157;DHT22;4613;48.392;9.998;2023-03-14T02:10:43;9.00;99.90
9157;DHT22;4613;48.392;9.998;2023-03-14T02:13:34;9.10;99.90
9157;DHT22;4613;48.392;9.998;2023-03-14T02:16:39;8.80;99.90
9157;DHT22;4613;48.392;9.998;2023-03-14T02:23:05;9.00;99.90
9157;DHT22;4613;48.392;9.998;2023-03-14T02:26:10;8.80;99.90
9157;DHT22;4613;48.392;9.998;2023-03-14T02:28:59;9.10;99.90
9157;DHT22;4613;48.392;9.998;2023-03-14T02:31:49;9.00;99.90
9157;DHT22;4613;48.392;9.998;2023-03-14T02:34:41;8.90;99.90
9157;DHT22;4613;48.392;9.998;2023-03-14T02:37:45;8.70;99.90
9157;DHT22;4613;48.392;9.998;2023-03-14T02:40:35;8.90;99.90
9157;DHT22;4613;48.392;9.998;2023-03-14T02:43:25;8.80;99.90
9157;DHT22;4613;48.392;9.998;2023-03-14T02:46:21;8.90;99.90
9157;DHT22;4613;48.392;9.998;2023-03-14T02:49:12;8.70;99.90
9157;DHT22;4613;48.392;9.998;2023-03-14T02:52:02;8.70;99.90
9157;DHT22;4613;48.392;9.998;2023-03-14T02:54:53;8.70;99.90
9157;DHT22;4613;48.392;9.998;2023-03-14T02:57:43;8.70;99.90
9157;DHT22;4613;48.392;9.998;2023-03-14T03:00:33;8.70;99.90
9157;DHT22;4613;48.392;9.998;2023-03-14T03:03:25;8.70;99.90
9157;DHT22;4613;48.392;9.998;2023-03-14T03:06:15;8.80;99.90
9157;DHT22;4613;48.392;9.998;2023-03-14T03:09:04;8.70;99.90
9157;DHT22;4613;48.392;9.998;2023-03-14T03:11:54;8.60;99.90
9157;DHT22;4613;48.392;9.998;2023-03-14T03:14:46;8.60;99.90
9157;DHT22;4613;48.392;9.998;2023-03-14T03:17:35;8.40;99.90
9157;DHT22;4613;48.392;9.998;2023-03-14T03:20:25;8.40;99.90
9157;DHT22;4613;48.392;9.998;2023-03-14T03:23:15;8.50;99.90
9157;DHT22;4613;48.392;9.998;2023-03-14T03:26:10;8.50;99.90
9157;DHT22;4613;48.392;9.998;2023-03-14T03:29:00;8.70;99.90
9157;DHT22;4613;48.392;9.998;2023-03-14T03:31:49;8.30;99.90
9157;DHT22;4613;48.392;9.998;2023-03-14T03:34:39;8.40;99.90
9157;DHT22;4613;48.392;9.998;2023-03-14T03:37:31;8.50;99.90
9157;DHT22;4613;48.392;9.998;2023-03-14T03:40:20;8.50;99.90
9157;DHT22;4613;48.392;9.998;2023-03-14T03:43:09;8.60;99.90
9157;DHT22;4613;48.392;9.998;2023-03-14T03:46:06;8.60;99.90
9157;DHT22;4613;48.392;9.998;2023-03-14T03:48:57;8.50;99.90
9157;DHT22;4613;48.392;9.998;2023-03-14T03:51:48;8.60;99.90
9157;DHT22;4613;48.392;9.998;2023-03-14T03:54:37;8.70;99.90
9157;DHT22;4613;48.392;9.998;2023-03-14T03:57:27;8.50;99.90
9157;DHT22;4613;48.392;9.998;2023-03-14T04:00:17;8.50;99.90
9157;DHT22;4613;48.392;9.998;2023-03-14T04:03:07;8.60;99.90
9157;DHT22;4613;48.392;9.998;2023-03-14T04:06:05;8.60;99.90
9157;DHT22;4613;48.392;9.998;2023-03-14T04:08:56;8.50;99.90
9157;DHT22;4613;48.392;9.998;2023-03-14T04:12:09;8.60;99.90
9157;DHT22;4613;48.392;9.998;2023-03-14T04:15:17;8.50;99.90
9157;DHT22;4613;48.392;9.998;2023-03-14T04:18:10;8.40;99.90
9157;DHT22;4613;48.392;9.998;2023-03-14T04:20:59;8.40;99.90
9157;DHT22;4613;48.392;9.998;2023-03-14T04:23:57;8.60;99.90
9157;DHT22;4613;48.392;9.998;2023-03-14T04:26:49;8.50;99.90
9157;DHT22;4613;48.392;9.998;2023-03-14T04:29:39;8.60;99.90
9157;DHT22;4613;48.392;9.998;2023-03-14T04:32:29;8.30;99.90
9157;DHT22;4613;48.392;9.998;2023-03-14T04:35:20;8.40;99.90
9157;DHT22;4613;48.392;9.998;2023-03-14T04:38:16;8.50;99.90
9157;DHT22;4613;48.392;9.998;2023-03-14T04:41:07;8.40;99.90
9157;DHT22;4613;48.392;9.998;2023-03-14T04:43:58;8.40;99.90
9157;DHT22;4613;48.392;9.998;2023-03-14T04:46:48;8.40;99.90
9157;DHT22;4613;48.392;9.998;2023-03-14T04:49:39;8.50;99.90
9157;DHT22;4613;48.392;9.998;2023-03-14T04:52:31;8.50;99.90
9157;DHT22;4613;48.392;9.998;2023-03-14T04:55:21;8.50;99.90
9157;DHT22;4613;48.392;9.998;2023-03-14T04:58:10;8.50;99.90
9157;DHT22;4613;48.392;9.998;2023-03-14T05:01:04;8.40;99.90
9157;DHT22;4613;48.392;9.998;2023-03-14T05:04:12;8.40;99.90
9157;DHT22;4613;48.392;9.998;2023-03-14T05:07:33;8.30;99.90
9157;DHT22;4613;48.392;9.998;2023-03-14T05:10:52;8.50;99.90
9157;DHT22;4613;48.392;9.998;2023-03-14T05:14:14;8.50;99.90
9157;DHT22;4613;48.392;9.998;2023-03-14T05:17:03;8.30;99.90
9157;DHT22;4613;48.392;9.998;2023-03-14T05:20:11;8.40;99.90
9157;DHT22;4613;48.392;9.998;2023-03-14T05:23:26;8.30;99.90
9157;DHT22;4613;48.392;9.998;2023-03-14T05:26:45;8.10;99.90
9157;DHT22;4613;48.392;9.998;2023-03-14T05:29:52;7.90;99.90
9157;DHT22;4613;48.392;9.998;2023-03-14T05:33:08;7.90;99.90
9157;DHT22;4613;48.392;9.998;2023-03-14T05:36:17;8.10;99.90
9157;DHT22;4613;48.392;9.998;2023-03-14T05:39:25;8.30;99.90
9157;DHT22;4613;48.392;9.998;2023-03-14T05:42:33;8.30;99.90
9157;DHT22;4613;48.392;9.998;2023-03-14T05:45:55;8.10;99.90
9157;DHT22;4613;48.392;9.998;2023-03-14T05:49:00;8.20;99.90
9157;DHT22;4613;48.392;9.998;2023-03-14T05:52:06;8.20;99.90
9157;DHT22;4613;48.392;9.998;2023-03-14T05:55:10;8.30;99.90
9157;DHT22;4613;48.392;9.998;2023-03-14T05:58:02;8.30;99.90
9157;DHT22;4613;48.392;9.998;2023-03-14T06:01:06;8.30;99.90
9157;DHT22;4613;48.392;9.998;2023-03-14T06:04:08;8.40;99.90
9157;DHT22;4613;48.392;9.998;2023-03-14T06:06:58;8.30;99.90
9157;DHT22;4613;48.392;9.998;2023-03-14T06:09:47;8.30;99.90
9157;DHT22;4613;48.392;9.998;2023-03-14T06:12:40;8.20;99.90
9157;DHT22;4613;48.392;9.998;2023-03-14T06:15:29;8.40;99.90
9157;DHT22;4613;48.392;9.998;2023-03-14T06:18:19;8.20;99.90
9157;DHT22;4613;48.392;9.998;2023-03-14T06:21:09;8.40;99.90
9157;DHT22;4613;48.392;9.998;2023-03-14T06:23:59;8.40;99.90
9157;DHT22;4613;48.392;9.998;2023-03-14T06:26:52;8.40;99.90
9157;DHT22;4613;48.392;9.998;2023-03-14T06:29:41;8.60;99.90
9157;DHT22;4613;48.392;9.998;2023-03-14T06:32:31;8.70;99.90
9157;DHT22;4613;48.392;9.998;2023-03-14T06:35:27;8.60;99.90
9157;DHT22;4613;48.392;9.998;2023-03-14T06:38:20;8.50;99.90
9157;DHT22;4613;48.392;9.998;2023-03-14T06:41:10;8.50;99.90
9157;DHT22;4613;48.392;9.998;2023-03-14T06:44:04;8.40;99.90
9157;DHT22;4613;48.392;9.998;2023-03-14T06:46:54;8.30;99.90
9157;DHT22;4613;48.392;9.998;2023-03-14T06:49:44;8.40;99.90
9157;DHT22;4613;48.392;9.998;2023-03-14T06:52:36;8.60;99.90
9157;DHT22;4613;48.392;9.998;2023-03-14T06:55:26;8.60;99.90
9157;DHT22;4613;48.392;9.998;2023-03-14T06:58:17;8.50;99.90
9157;DHT22;4613;48.392;9.998;2023-03-14T07:01:24;8.60;99.90
9157;DHT22;4613;48.392;9.998;2023-03-14T07:04:14;8.80;99.90
9157;DHT22;4613;48.392;9.998;2023-03-14T07:07:08;8.50;99.90
9157;DHT22;4613;48.392;9.998;2023-03-14T07:09:58;8.60;99.90
9157;DHT22;4613;48.392;9.998;2023-03-14T07:12:47;8.80;99.90
9157;DHT22;4613;48.392;9.998;2023-03-14T07:15:37;9.00;99.90
9157;DHT22;4613;48.392;9.998;2023-03-14T07:18:32;8.90;99.90
9157;DHT22;4613;48.392;9.998;2023-03-14T07:21:22;9.20;99.90
9157;DHT22;4613;48.392;9.998;2023-03-14T07:24:11;9.20;99.90
9157;DHT22;4613;48.392;9.998;2023-03-14T07:27:02;9.10;99.90
9157;DHT22;4613;48.392;9.998;2023-03-14T07:29:52;9.10;99.90
9157;DHT22;4613;48.392;9.998;2023-03-14T07:32:42;9.40;99.90
9157;DHT22;4613;48.392;9.998;2023-03-14T07:35:31;9.40;99.90
9157;DHT22;4613;48.392;9.998;2023-03-14T07:38:21;9.20;99.90
9157;DHT22;4613;48.392;9.998;2023-03-14T07:41:29;9.20;99.90
9157;DHT22;4613;48.392;9.998;2023-03-14T07:44:41;9.20;99.90
9157;DHT22;4613;48.392;9.998;2023-03-14T07:47:30;9.30;99.90
9157;DHT22;4613;48.392;9.998;2023-03-14T07:50:20;9.40;99.90
9157;DHT22;4613;48.392;9.998;2023-03-14T07:53:09;9.30;99.90
9157;DHT22;4613;48.392;9.998;2023-03-14T07:55:59;9.50;99.90
9157;DHT22;4613;48.392;9.998;2023-03-14T07:58:48;9.30;99.90
9157;DHT22;4613;48.392;9.998;2023-03-14T08:01:37;9.40;99.90
9157;DHT22;4613;48.392;9.998;2023-03-14T08:04:27;9.30;99.90
9157;DHT22;4613;48.392;9.998;2023-03-14T08:07:16;9.80;99.90
9157;DHT22;4613;48.392;9.998;2023-03-14T08:10:06;9.70;99.90
9157;DHT22;4613;48.392;9.998;2023-03-14T08:12:57;9.70;99.90
9157;DHT22;4613;48.392;9.998;2023-03-14T08:15:48;10.00;99.90
9157;DHT22;4613;48.392;9.998;2023-03-14T08:18:38;10.20;99.90
9157;DHT22;4613;48.392;9.998;2023-03-14T08:21:27;10.20;99.90
9157;DHT22;4613;48.392;9.998;2023-03-14T08:24:16;10.10;99.90
9157;DHT22;4613;48.392;9.998;2023-03-14T08:27:06;9.70;99.90
9157;DHT22;4613;48.392;9.998;2023-03-14T08:29:56;9.80;99.90
9157;DHT22;4613;48.392;9.998;2023-03-14T08:32:46;9.80;99.90
9157;DHT22;4613;48.392;9.998;2023-03-14T08:35:37;9.70;99.90
9157;DHT22;4613;48.392;9.998;2023-03-14T08:38:26;9.60;99.90
9157;DHT22;4613;48.392;9.998;2023-03-14T08:41:15;9.60;99.90
9157;DHT22;4613;48.392;9.998;2023-03-14T08:44:09;9.70;99.90
9157;DHT22;4613;48.392;9.998;2023-03-14T08:47:00;9.70;99.90
9157;DHT22;4613;48.392;9.998;2023-03-14T08:49:49;9.80;99.90
9157;DHT22;4613;48.392;9.998;2023-03-14T08:52:39;9.90;99.90
9157;DHT22;4613;48.392;9.998;2023-03-14T08:55:30;10.30;99.90
9157;DHT22;4613;48.392;9.998;2023-03-14T08:58:19;10.50;99.90
9157;DHT22;4613;48.392;9.998;2023-03-14T09:01:09;11.00;99.90
9157;DHT22;4613;48.392;9.998;2023-03-14T09:03:59;11.50;99.90
9157;DHT22;4613;48.392;9.998;2023-03-14T09:06:48;11.90;99.90
9157;DHT22;4613;48.392;9.998;2023-03-14T09:09:38;12.00;99.90
9157;DHT22;4613;48.392;9.998;2023-03-14T09:12:28;11.90;99.90
9157;DHT22;4613;48.392;9.998;2023-03-14T09:15:17;12.00;99.90
9157;DHT22;4613;48.392;9.998;2023-03-14T09:18:08;12.00;99.90
9157;DHT22;4613;48.392;9.998;2023-03-14T09:20:57;12.00;99.90
9157;DHT22;4613;48.392;9.998;2023-03-14T09:23:47;12.50;99.90
9157;DHT22;4613;48.392;9.998;2023-03-14T09:26:36;12.40;99.90
9157;DHT22;4613;48.392;9.998;2023-03-14T09:29:27;11.80;99.90
9157;DHT22;4613;48.392;9.998;2023-03-14T09:32:17;12.00;99.90
9157;DHT22;4613;48.392;9.998;2023-03-14T09:35:07;12.00;99.90
9157;DHT22;4613;48.392;9.998;2023-03-14T09:37:57;11.70;99.90
9157;DHT22;4613;48.392;9.998;2023-03-14T09:40:46;11.60;99.90
9157;DHT22;4613;48.392;9.998;2023-03-14T09:43:37;11.80;99.90
9157;DHT22;4613;48.392;9.998;2023-03-14T09:46:27;12.00;99.90
9157;DHT22;4613;48.392;9.998;2023-03-14T09:49:39;12.40;99.90
9157;DHT22;4613;48.392;9.998;2023-03-14T09:52:32;12.60;99.90
9157;DHT22;4613;48.392;9.998;2023-03-14T09:55:22;12.60;99.90
9157;DHT22;4613;48.392;9.998;2023-03-14T09:58:14;12.30;99.90
9157;DHT22;4613;48.392;9.998;2023-03-14T10:01:07;12.00;99.90
9157;DHT22;4613;48.392;9.998;2023-03-14T10:04:02;12.00;99.90
9157;DHT22;4613;48.392;9.998;2023-03-14T10:06:54;11.80;99.90
9157;DHT22;4613;48.392;9.998;2023-03-14T10:09:44;12.20;99.90
9157;DHT22;4613;48.392;9.998;2023-03-14T10:12:36;12.10;99.90
9157;DHT22;4613;48.392;9.998;2023-03-14T10:15:30;11.90;99.90
9157;DHT22;4613;48.392;9.998;2023-03-14T10:18:22;11.80;99.90
9157;DHT22;4613;48.392;9.998;2023-03-14T10:21:30;11.80;99.90
9157;DHT22;4613;48.392;9.998;2023-03-14T10:24:26;11.80;99.90
9157;DHT22;4613;48.392;9.998;2023-03-14T10:27:27;12.10;99.90
9157;DHT22;4613;48.392;9.998;2023-03-14T10:34:04;12.10;99.90
9157;DHT22;4613;48.392;9.998;2023-03-14T10:36:56;12.30;99.90
9157;DHT22;4613;48.392;9.998;2023-03-14T10:39:55;12.20;99.90
9157;DHT22;4613;48.392;9.998;2023-03-14T10:42:54;12.90;99.90
9157;DHT22;4613;48.392;9.998;2023-03-14T10:45:51;12.50;99.90
9157;DHT22;4613;48.392;9.998;2023-03-14T10:48:41;12.30;99.90
9157;DHT22;4613;48.392;9.998;2023-03-14T10:51:31;12.70;99.90
9157;DHT22;4613;48.392;9.998;2023-03-14T10:54:22;12.70;99.90
9157;DHT22;4613;48.392;9.998;2023-03-14T10:57:12;13.50;99.90
9157;DHT22;4613;48.392;9.998;2023-03-14T11:00:02;13.40;99.90
9157;DHT22;4613;48.392;9.998;2023-03-14T11:06:06;13.20;99.90
9157;DHT22;4613;48.392;9.998;2023-03-14T11:12:23;12.80;99.90
9157;DHT22;4613;48.392;9.998;2023-03-14T11:15:41;12.70;99.90
9157;DHT22;4613;48.392;9.998;2023-03-14T11:19:00;12.80;99.90
9157;DHT22;4613;48.392;9.998;2023-03-14T11:25:43;13.30;99.90
9157;DHT22;4613;48.392;9.998;2023-03-14T11:28:38;12.90;99.90
9157;DHT22;4613;48.392;9.998;2023-03-14T11:31:33;12.90;99.90
9157;DHT22;4613;48.392;9.998;2023-03-14T11:34:50;12.60;99.90
9157;DHT22;4613;48.392;9.998;2023-03-14T11:37:46;12.30;99.90
9157;DHT22;4613;48.392;9.998;2023-03-14T11:40:37;12.40;99.90
9157;DHT22;4613;48.392;9.998;2023-03-14T11:43:30;12.30;99.90
9157;DHT22;4613;48.392;9.998;2023-03-14T11:46:28;11.90;99.90
9157;DHT22;4613;48.392;9.998;2023-03-14T11:49:38;12.00;99.90
9157;DHT22;4613;48.392;9.998;2023-03-14T11:52:41;12.10;99.90
9157;DHT22;4613;48.392;9.998;2023-03-14T11:55:35;12.00;99.90
9157;DHT22;4613;48.392;9.998;2023-03-14T11:58:34;11.80;99.90
9157;DHT22;4613;48.392;9.998;2023-03-14T12:01:36;11.50;99.90
9157;DHT22;4613;48.392;9.998;2023-03-14T12:05:00;11.70;99.90
9157;DHT22;4613;48.392;9.998;2023-03-14T12:14:33;11.40;99.90
9157;DHT22;4613;48.392;9.998;2023-03-14T12:17:26;11.30;99.90
9157;DHT22;4613;48.392;9.998;2023-03-14T12:20:18;11.20;99.90
9157;DHT22;4613;48.392;9.998;2023-03-14T12:23:11;11.10;99.90
9157;DHT22;4613;48.392;9.998;2023-03-14T12:26:26;11.00;99.90
9157;DHT22;4613;48.392;9.998;2023-03-14T12:29:16;10.90;99.90
9157;DHT22;4613;48.392;9.998;2023-03-14T12:32:21;11.00;99.90
9157;DHT22;4613;48.392;9.998;2023-03-14T12:38:46;10.90;99.90
9157;DHT22;4613;48.392;9.998;2023-03-14T12:41:46;11.00;99.90
9157;DHT22;4613;48.392;9.998;2023-03-14T12:44:42;10.60;99.90
9157;DHT22;4613;48.392;9.998;2023-03-14T12:50:35;10.40;99.90
9157;DHT22;4613;48.392;9.998;2023-03-14T13:00:21;10.20;99.90
9157;DHT22;4613;48.392;9.998;2023-03-14T13:03:19;10.20;99.90
9157;DHT22;4613;48.392;9.998;2023-03-14T13:06:11;10.10;99.90
9157;DHT22;4613;48.392;9.998;2023-03-14T13:12:28;10.20;99.90
9157;DHT22;4613;48.392;9.998;2023-03-14T13:15:26;10.10;99.90
9157;DHT22;4613;48.392;9.998;2023-03-14T13:18:40;9.80;99.90
9157;DHT22;4613;48.392;9.998;2023-03-14T13:21:34;9.80;99.90
9157;DHT22;4613;48.392;9.998;2023-03-14T13:24:26;9.80;99.90
9157;DHT22;4613;48.392;9.998;2023-03-14T13:27:20;9.50;99.90
9157;DHT22;4613;48.392;9.998;2023-03-14T13:30:19;9.30;99.90
9157;DHT22;4613;48.392;9.998;2023-03-14T13:33:16;9.20;99.90
9157;DHT22;4613;48.392;9.998;2023-03-14T13:36:06;9.20;99.90
9157;DHT22;4613;48.392;9.998;2023-03-14T13:38:59;9.10;99.90
9157;DHT22;4613;48.392;9.998;2023-03-14T13:41:48;9.30;99.90
9157;DHT22;4613;48.392;9.998;2023-03-14T13:44:39;9.60;99.90
9157;DHT22;4613;48.392;9.998;2023-03-14T13:47:28;9.30;99.90
9157;DHT22;4613;48.392;9.998;2023-03-14T13:50:18;9.40;99.90
9157;DHT22;4613;48.392;9.998;2023-03-14T13:53:11;9.30;99.90
9157;DHT22;4613;48.392;9.998;2023-03-14T13:56:02;9.40;99.90
9157;DHT22;4613;48.392;9.998;2023-03-14T13:58:52;9.40;99.90
9157;DHT22;4613;48.392;9.998;2023-03-14T14:01:42;9.70;99.90
9157;DHT22;4613;48.392;9.998;2023-03-14T14:04:33;10.00;99.90
9157;DHT22;4613;48.392;9.998;2023-03-14T14:07:25;10.00;99.90
9157;DHT22;4613;48.392;9.998;2023-03-14T14:10:14;10.20;99.90
9157;DHT22;4613;48.392;9.998;2023-03-14T14:13:06;10.30;99.90
9157;DHT22;4613;48.392;9.998;2023-03-14T14:16:00;10.20;99.90
9157;DHT22;4613;48.392;9.998;2023-03-14T14:18:51;10.00;99.90
9157;DHT22;4613;48.392;9.998;2023-03-14T14:21:42;10.20;99.90
9157;DHT22;4613;48.392;9.998;2023-03-14T14:24:32;9.90;99.90
9157;DHT22;4613;48.392;9.998;2023-03-14T14:27:43;9.70;99.90
9157;DHT22;4613;48.392;9.998;2023-03-14T14:30:33;9.80;99.90
9157;DHT22;4613;48.392;9.998;2023-03-14T14:33:22;9.90;99.90
9157;DHT22;4613;48.392;9.998;2023-03-14T14:36:22;9.70;99.90
9157;DHT22;4613;48.392;9.998;2023-03-14T14:39:23;9.60;99.90
9157;DHT22;4613;48.392;9.998;2023-03-14T14:42:15;9.50;99.90
9157;DHT22;4613;48.392;9.998;2023-03-14T14:45:09;9.50;99.90
9157;DHT22;4613;48.392;9.998;2023-03-14T14:48:03;9.50;99.90
9157;DHT22;4613;48.392;9.998;2023-03-14T14:51:00;9.60;99.90
9157;DHT22;4613;48.392;9.998;2023-03-14T14:53:59;9.40;99.90
9157;DHT22;4613;48.392;9.998;2023-03-14T14:56:50;9.10;99.90
9157;DHT22;4613;48.392;9.998;2023-03-14T14:59:42;9.30;99.90
9157;DHT22;4613;48.392;9.998;2023-03-14T15:02:38;9.00;99.90
9157;DHT22;4613;48.392;9.998;2023-03-14T15:05:34;9.00;99.90
9157;DHT22;4613;48.392;9.998;2023-03-14T15:08:26;9.00;99.90
9157;DHT22;4613;48.392;9.998;2023-03-14T15:11:23;8.80;99.90
9157;DHT22;4613;48.392;9.998;2023-03-14T15:14:13;9.00;99.90
9157;DHT22;4613;48.392;9.998;2023-03-14T15:17:03;8.90;99.90
9157;DHT22;4613;48.392;9.998;2023-03-14T15:19:52;8.70;99.90
9157;DHT22;4613;48.392;9.998;2023-03-14T15:22:42;8.90;99.90
9157;DHT22;4613;48.392;9.998;2023-03-14T15:25:32;8.80;99.90
9157;DHT22;4613;48.392;9.998;2023-03-14T15:28:26;8.60;99.90
9157;DHT22;4613;48.392;9.998;2023-03-14T15:31:17;8.70;99.90
9157;DHT22;4613;48.392;9.998;2023-03-14T15:34:08;9.00;99.90
9157;DHT22;4613;48.392;9.998;2023-03-14T15:36:59;9.00;99.90
9157;DHT22;4613;48.392;9.998;2023-03-14T15:39:48;8.70;99.90
9157;DHT22;4613;48.392;9.998;2023-03-14T15:42:38;8.70;99.90
9157;DHT22;4613;48.392;9.998;2023-03-14T15:45:27;8.50;99.90
9157;DHT22;4613;48.392;9.998;2023-03-14T15:48:18;8.50;99.90
9157;DHT22;4613;48.392;9.998;2023-03-14T15:51:08;8.40;99.90
9157;DHT22;4613;48.392;9.998;2023-03-14T15:53:57;8.30;99.90
9157;DHT22;4613;48.392;9.998;2023-03-14T15:56:46;8.20;99.90
9157;DHT22;4613;48.392;9.998;2023-03-14T15:59:36;8.20;99.90
9157;DHT22;4613;48.392;9.998;2023-03-14T16:02:25;8.10;99.90
9157;DHT22;4613;48.392;9.998;2023-03-14T16:05:16;8.20;99.90
9157;DHT22;4613;48.392;9.998;2023-03-14T16:08:08;8.20;99.90
9157;DHT22;4613;48.392;9.998;2023-03-14T16:10:58;8.40;99.90
9157;DHT22;4613;48.392;9.998;2023-03-14T16:13:48;8.10;99.90
9157;DHT22;4613;48.392;9.998;2023-03-14T16:16:37;8.30;99.90
9157;DHT22;4613;48.392;9.998;2023-03-14T16:19:26;8.40;99.90
9157;DHT22;4613;48.392;9.998;2023-03-14T16:22:16;8.30;99.90
9157;DHT22;4613;48.392;9.998;2023-03-14T16:25:06;8.40;99.90
9157;DHT22;4613;48.392;9.998;2023-03-14T16:27:56;8.40;99.90
9157;DHT22;4613;48.392;9.998;2023-03-14T16:30:45;8.50;99.90
9157;DHT22;4613;48.392;9.998;2023-03-14T16:33:37;8.60;99.90
9157;DHT22;4613;48.392;9.998;2023-03-14T16:36:27;8.30;99.90
9157;DHT22;4613;48.392;9.998;2023-03-14T16:39:17;8.30;99.90
9157;DHT22;4613;48.392;9.998;2023-03-14T16:42:07;8.30;99.90
9157;DHT22;4613;48.392;9.998;2023-03-14T16:44:56;8.20;99.90
9157;DHT22;4613;48.392;9.998;2023-03-14T16:47:45;8.10;99.90
9157;DHT22;4613;48.392;9.998;2023-03-14T16:50:34;8.10;99.90
9157;DHT22;4613;48.392;9.998;2023-03-14T16:53:23;8.20;99.90
9157;DHT22;4613;48.392;9.998;2023-03-14T16:56:15;8.30;99.90
9157;DHT22;4613;48.392;9.998;2023-03-14T16:59:04;8.10;99.90
9157;DHT22;4613;48.392;9.998;2023-03-14T17:01:55;8.00;99.90
9157;DHT22;4613;48.392;9.998;2023-03-14T17:04:45;7.90;99.90
9157;DHT22;4613;48.392;9.998;2023-03-14T17:07:35;7.90;99.90
9157;DHT22;4613;48.392;9.998;2023-03-14T17:10:25;8.00;99.90
9157;DHT22;4613;48.392;9.998;2023-03-14T17:13:14;7.90;99.90
9157;DHT22;4613;48.392;9.998;2023-03-14T17:16:04;7.70;99.90
9157;DHT22;4613;48.392;9.998;2023-03-14T17:18:54;7.90;99.90
9157;DHT22;4613;48.392;9.998;2023-03-14T17:21:43;7.80;99.90
9157;DHT22;4613;48.392;9.998;2023-03-14T17:24:33;7.80;99.90
9157;DHT22;4613;48.392;9.998;2023-03-14T17:27:22;8.00;99.90
9157;DHT22;4613;48.392;9.998;2023-03-14T17:30:11;8.10;99.90
9157;DHT22;4613;48.392;9.998;2023-03-14T17:33:01;8.00;99.90
9157;DHT22;4613;48.392;9.998;2023-03-14T17:35:52;8.20;99.90
9157;DHT22;4613;48.392;9.998;2023-03-14T17:38:42;7.70;99.90
9157;DHT22;4613;48.392;9.998;2023-03-14T17:41:31;8.00;99.90
9157;DHT22;4613;48.392;9.998;2023-03-14T17:44:20;7.80;99.90
9157;DHT22;4613;48.392;9.998;2023-03-14T17:47:10;7.80;99.90
9157;DHT22;4613;48.392;9.998;2023-03-14T17:50:00;7.80;99.90
9157;DHT22;4613;48.392;9.998;2023-03-14T17:52:53;7.70;99.90
9157;DHT22;4613;48.392;9.998;2023-03-14T17:55:42;7.70;99.90
9157;DHT22;4613;48.392;9.998;2023-03-14T17:58:31;7.90;99.90
9157;DHT22;4613;48.392;9.998;2023-03-14T18:01:24;7.70;99.90
9157;DHT22;4613;48.392;9.998;2023-03-14T18:04:14;7.90;99.90
9157;DHT22;4613;48.392;9.998;2023-03-14T18:07:05;8.00;99.90
9157;DHT22;4613;48.392;9.998;2023-03-14T18:09:54;8.00;99.90
9157;DHT22;4613;48.392;9.998;2023-03-14T18:12:43;7.90;99.90
9157;DHT22;4613;48.392;9.998;2023-03-14T18:15:33;8.00;99.90
9157;DHT22;4613;48.392;9.998;2023-03-14T18:18:23;7.80;99.90
9157;DHT22;4613;48.392;9.998;2023-03-14T18:21:12;7.90;99.90
9157;DHT22;4613;48.392;9.998;2023-03-14T18:24:01;8.00;99.90
9157;DHT22;4613;48.392;9.998;2023-03-14T18:26:52;8.00;99.90
9157;DHT22;4613;48.392;9.998;2023-03-14T18:29:42;8.00;99.90
9157;DHT22;4613;48.392;9.998;2023-03-14T18:32:31;8.10;99.90
9157;DHT22;4613;48.392;9.998;2023-03-14T18:35:21;8.30;99.90
9157;DHT22;4613;48.392;9.998;2023-03-14T18:38:10;8.30;99.90
9157;DHT22;4613;48.392;9.998;2023-03-14T18:41:06;8.10;99.90
9157;DHT22;4613;48.392;9.998;2023-03-14T18:43:55;8.10;99.90
9157;DHT22;4613;48.392;9.998;2023-03-14T18:46:44;8.00;99.90
9157;DHT22;4613;48.392;9.998;2023-03-14T18:49:34;7.80;99.90
9157;DHT22;4613;48.392;9.998;2023-03-14T18:52:23;7.50;99.90
9157;DHT22;4613;48.392;9.998;2023-03-14T18:55:13;7.00;99.90
9157;DHT22;4613;48.392;9.998;2023-03-14T18:58:02;7.00;99.90
9157;DHT22;4613;48.392;9.998;2023-03-14T19:00:52;6.70;99.90
9157;DHT22;4613;48.392;9.998;2023-03-14T19:03:44;6.60;99.90
9157;DHT22;4613;48.392;9.998;2023-03-14T19:06:35;6.50;99.90
9157;DHT22;4613;48.392;9.998;2023-03-14T19:09:24;6.60;99.90
9157;DHT22;4613;48.392;9.998;2023-03-14T19:12:14;6.80;99.90
9157;DHT22;4613;48.392;9.998;2023-03-14T19:15:08;6.80;99.90
9157;DHT22;4613;48.392;9.998;2023-03-14T19:17:58;6.80;99.90
9157;DHT22;4613;48.392;9.998;2023-03-14T19:20:56;6.90;99.90
9157;DHT22;4613;48.392;9.998;2023-03-14T19:23:46;7.10;99.90
9157;DHT22;4613;48.392;9.998;2023-03-14T19:26:37;6.80;99.90
9157;DHT22;4613;48.392;9.998;2023-03-14T19:29:27;6.60;99.90
9157;DHT22;4613;48.392;9.998;2023-03-14T19:32:18;6.40;99.90
9157;DHT22;4613;48.392;9.998;2023-03-14T19:35:09;6.40;99.90
9157;DHT22;4613;48.392;9.998;2023-03-14T19:37:59;6.10;99.90
9157;DHT22;4613;48.392;9.998;2023-03-14T19:40:49;6.20;99.90
9157;DHT22;4613;48.392;9.998;2023-03-14T19:43:40;6.00;99.90
9157;DHT22;4613;48.392;9.998;2023-03-14T19:46:30;5.90;99.90
9157;DHT22;4613;48.392;9.998;2023-03-14T19:49:21;5.90;99.90